sensor_id;sensor_type;location;lat;lon;timestamp;pressure;altitude;pressure_sealevel;temperature;humidity
11314;BME280;5712;48.858;9.206;2023-02-21T00:01:35;98674.78;;;4.48;85.16
11314;BME280;5712;48.858;9.206;2023-02-21T00:04:19;98669.56;;;4.48;84.50
11314;BME280;5712;48.858;9.206;2023-02-21T00:07:03;98663.25;;;4.54;84.36
11314;BME280;5712;48.858;9.206;2023-02-21T00:09:49;98657.88;;;4.57;84.69
11314;BME280;5712;48.858;9.206;2023-02-21T00:12:33;98641.31;;;4.56;84.03
11314;BME280;5712;48.858;9.206;2023-02-21T00:15:17;98649.41;;;4.50;84.35
11314;BME280;5712;48.858;9.206;2023-02-21T00:18:00;98647.25;;;4.38;84.46
11314;BME280;5712;48.858;9.206;2023-02-21T00:20:45;98656.00;;;4.37;85.38
11314;BME280;5712;48.858;9.206;2023-02-21T00:23:32;98655.31;;;4.32;85.55
11314;BME280;5712;48.858;9.206;2023-02-21T00:26:18;98649.91;;;4.37;85.61
11314;BME280;5712;48.858;9.206;2023-02-21T00:29:02;98652.47;;;4.38;86.53
11314;BME280;5712;48.858;9.206;2023-02-21T00:31:46;98649.59;;;4.46;85.71
11314;BME280;5712;48.858;9.206;2023-02-21T00:34:30;98640.09;;;4.43;85.52
11314;BME280;5712;48.858;9.206;2023-02-21T00:37:14;98647.34;;;4.35;86.17
11314;BME280;5712;48.858;9.206;2023-02-21T00:39:58;98644.63;;;4.38;86.21
11314;BME280;5712;48.858;9.206;2023-02-21T00:42:43;98642.91;;;4.37;85.74
11314;BME280;5712;48.858;9.206;2023-02-21T00:45:27;98639.16;;;4.44;85.18
11314;BME280;5712;48.858;9.206;2023-02-21T00:48:11;98626.81;;;4.48;85.14
11314;BME280;5712;48.858;9.206;2023-02-21T00:50:55;98641.22;;;4.36;86.12
11314;BME280;5712;48.858;9.206;2023-02-21T00:53:39;98642.19;;;4.34;86.73
11314;BME280;5712;48.858;9.206;2023-02-21T00:56:23;98638.00;;;4.28;86.81
11314;BME280;5712;48.858;9.206;2023-02-21T00:59:08;98635.63;;;4.22;87.59
11314;BME280;5712;48.858;9.206;2023-02-21T01:01:52;98637.03;;;4.31;87.71
11314;BME280;5712;48.858;9.206;2023-02-21T01:04:36;98639.56;;;4.34;87.64
11314;BME280;5712;48.858;9.206;2023-02-21T01:07:20;98636.03;;;4.35;87.15
11314;BME280;5712;48.858;9.206;2023-02-21T01:10:04;98627.72;;;4.24;87.22
11314;BME280;5712;48.858;9.206;2023-02-21T01:12:48;98628.09;;;4.13;87.23
11314;BME280;5712;48.858;9.206;2023-02-21T01:15:33;98639.50;;;4.12;87.78
11314;BME280;5712;48.858;9.206;2023-02-21T01:18:17;98643.53;;;3.96;88.21
11314;BME280;5712;48.858;9.206;2023-02-21T01:21:01;98634.50;;;3.80;88.70
11314;BME280;5712;48.858;9.206;2023-02-21T01:23:45;98641.19;;;3.64;89.68
11314;BME280;5712;48.858;9.206;2023-02-21T01:26:29;98637.06;;;3.57;91.40
11314;BME280;5712;48.858;9.206;2023-02-21T01:29:13;98646.66;;;3.57;92.39
11314;BME280;5712;48.858;9.206;2023-02-21T01:31:58;98636.03;;;3.61;92.69
11314;BME280;5712;48.858;9.206;2023-02-21T01:34:42;98642.13;;;3.62;93.85
11314;BME280;5712;48.858;9.206;2023-02-21T01:37:26;98639.16;;;3.72;93.98
11314;BME280;5712;48.858;9.206;2023-02-21T01:40:13;98631.88;;;3.80;93.72
11314;BME280;5712;48.858;9.206;2023-02-21T01:42:57;98630.41;;;3.73;93.73
11314;BME280;5712;48.858;9.206;2023-02-21T01:45:46;98627.19;;;3.65;93.69
11314;BME280;5712;48.858;9.206;2023-02-21T01:48:33;98625.50;;;3.64;94.25
11314;BME280;5712;48.858;9.206;2023-02-21T01:51:20;98623.69;;;3.66;93.66
11314;BME280;5712;48.858;9.206;2023-02-21T01:54:06;98618.66;;;3.60;94.73
11314;BME280;5712;48.858;9.206;2023-02-21T01:56:52;98615.34;;;3.55;95.33
11314;BME280;5712;48.858;9.206;2023-02-21T01:59:37;98623.31;;;3.52;96.08
11314;BME280;5712;48.858;9.206;2023-02-21T02:02:28;98618.16;;;3.49;96.36
11314;BME280;5712;48.858;9.206;2023-02-21T02:05:15;98613.97;;;3.45;96.67
11314;BME280;5712;48.858;9.206;2023-02-21T02:08:00;98623.53;;;3.45;97.60
11314;BME280;5712;48.858;9.206;2023-02-21T02:10:45;98610.53;;;3.43;97.70
11314;BME280;5712;48.858;9.206;2023-02-21T02:13:46;98614.03;;;3.42;97.91
11314;BME280;5712;48.858;9.206;2023-02-21T02:16:23;98612.53;;;3.35;98.43
11314;BME280;5712;48.858;9.206;2023-02-21T02:19:00;98607.44;;;3.32;99.29
11314;BME280;5712;48.858;9.206;2023-02-21T02:24:39;98613.34;;;3.37;99.89
11314;BME280;5712;48.858;9.206;2023-02-21T02:27:36;98615.94;;;3.37;100.00
11314;BME280;5712;48.858;9.206;2023-02-21T02:33:53;98608.19;;;3.36;100.00
11314;BME280;5712;48.858;9.206;2023-02-21T02:36:33;98606.25;;;3.41;100.00
11314;BME280;5712;48.858;9.206;2023-02-21T02:39:07;98598.78;;;3.30;99.48
11314;BME280;5712;48.858;9.206;2023-02-21T02:41:45;98593.00;;;3.21;99.75
11314;BME280;5712;48.858;9.206;2023-02-21T02:44:19;98596.56;;;3.18;99.93
11314;BME280;5712;48.858;9.206;2023-02-21T02:46:48;98590.84;;;3.07;100.00
11314;BME280;5712;48.858;9.206;2023-02-21T02:49:18;98587.16;;;3.14;100.00
11314;BME280;5712;48.858;9.206;2023-02-21T02:51:47;98585.59;;;3.07;100.00
11314;BME280;5712;48.858;9.206;2023-02-21T02:54:14;98590.84;;;3.07;100.00
11314;BME280;5712;48.858;9.206;2023-02-21T02:56:40;98595.22;;;3.07;100.00
11314;BME280;5712;48.858;9.206;2023-02-21T02:59:09;98597.88;;;3.05;100.00
11314;BME280;5712;48.858;9.206;2023-02-21T03:01:58;98592.66;;;3.05;100.00
11314;BME280;5712;48.858;9.206;2023-02-21T03:04:43;98595.97;;;3.10;100.00
11314;BME280;5712;48.858;9.206;2023-02-21T03:07:16;98600.44;;;3.07;100.00
11314;BME280;5712;48.858;9.206;2023-02-21T03:10:00;98594.66;;;2.97;100.00
11314;BME280;5712;48.858;9.206;2023-02-21T03:12:34;98599.41;;;2.85;100.00
11314;BME280;5712;48.858;9.206;2023-02-21T03:15:06;98602.34;;;2.74;100.00
11314;BME280;5712;48.858;9.206;2023-02-21T03:17:39;98594.19;;;2.57;100.00
11314;BME280;5712;48.858;9.206;2023-02-21T03:20:10;98596.25;;;2.46;100.00
11314;BME280;5712;48.858;9.206;2023-02-21T03:22:42;98597.44;;;2.36;100.00
11314;BME280;5712;48.858;9.206;2023-02-21T03:25:11;98594.19;;;2.28;100.00
11314;BME280;5712;48.858;9.206;2023-02-21T03:27:39;98597.00;;;2.22;100.00
11314;BME280;5712;48.858;9.206;2023-02-21T03:30:08;98595.41;;;2.17;100.00
11314;BME280;5712;48.858;9.206;2023-02-21T03:32:37;98598.94;;;2.14;100.00
11314;BME280;5712;48.858;9.206;2023-02-21T03:35:06;98605.97;;;2.12;100.00
11314;BME280;5712;48.858;9.206;2023-02-21T03:37:35;98598.19;;;2.11;100.00
11314;BME280;5712;48.858;9.206;2023-02-21T03:40:06;98593.84;;;2.11;100.00
11314;BME280;5712;48.858;9.206;2023-02-21T03:42:33;98607.94;;;2.04;100.00
11314;BME280;5712;48.858;9.206;2023-02-21T03:45:00;98603.56;;;2.05;100.00
11314;BME280;5712;48.858;9.206;2023-02-21T03:47:26;98597.41;;;2.07;100.00
11314;BME280;5712;48.858;9.206;2023-02-21T03:49:53;98604.13;;;2.16;100.00
11314;BME280;5712;48.858;9.206;2023-02-21T03:52:19;98596.44;;;2.11;100.00
11314;BME280;5712;48.858;9.206;2023-02-21T03:54:46;98592.06;;;2.12;100.00
11314;BME280;5712;48.858;9.206;2023-02-21T03:57:14;98597.16;;;2.16;100.00
11314;BME280;5712;48.858;9.206;2023-02-21T03:59:40;98602.22;;;2.22;100.00
11314;BME280;5712;48.858;9.206;2023-02-21T04:02:07;98606.63;;;2.19;100.00
11314;BME280;5712;48.858;9.206;2023-02-21T04:04:34;98605.78;;;2.18;100.00
11314;BME280;5712;48.858;9.206;2023-02-21T04:07:00;98603.19;;;2.18;100.00
11314;BME280;5712;48.858;9.206;2023-02-21T04:09:27;98600.56;;;2.18;100.00
11314;BME280;5712;48.858;9.206;2023-02-21T04:11:53;98598.00;;;2.17;100.00
11314;BME280;5712;48.858;9.206;2023-02-21T04:14:21;98598.13;;;2.14;100.00
11314;BME280;5712;48.858;9.206;2023-02-21T04:16:47;98596.47;;;2.10;100.00
11314;BME280;5712;48.858;9.206;2023-02-21T04:19:14;98598.34;;;2.05;100.00
11314;BME280;5712;48.858;9.206;2023-02-21T04:21:40;98594.06;;;2.02;100.00
11314;BME280;5712;48.858;9.206;2023-02-21T04:24:07;98598.53;;;1.99;100.00
11314;BME280;5712;48.858;9.206;2023-02-21T04:26:33;98605.50;;;1.98;100.00
11314;BME280;5712;48.858;9.206;2023-02-21T04:29:00;98606.38;;;1.97;100.00
11314;BME280;5712;48.858;9.206;2023-02-21T04:31:28;98591.59;;;1.98;100.00
11314;BME280;5712;48.858;9.206;2023-02-21T04:33:56;98601.22;;;1.96;100.00
11314;BME280;5712;48.858;9.206;2023-02-21T04:36:23;98602.16;;;1.93;100.00
11314;BME280;5712;48.858;9.206;2023-02-21T04:38:49;98597.69;;;1.98;100.00
11314;BME280;5712;48.858;9.206;2023-02-21T04:41:16;98594.97;;;2.01;100.00
11314;BME280;5712;48.858;9.206;2023-02-21T04:43:43;98605.41;;;2.01;100.00
11314;BME280;5712;48.858;9.206;2023-02-21T04:46:10;98602.72;;;2.04;100.00
11314;BME280;5712;48.858;9.206;2023-02-21T04:48:41;98594.06;;;2.02;100.00
11314;BME280;5712;48.858;9.206;2023-02-21T04:51:07;98599.13;;;2.08;100.00
11314;BME280;5712;48.858;9.206;2023-02-21T04:53:34;98598.94;;;2.14;100.00
11314;BME280;5712;48.858;9.206;2023-02-21T04:56:00;98595.94;;;2.28;100.00
11314;BME280;5712;48.858;9.206;2023-02-21T04:58:28;98582.81;;;2.31;100.00
11314;BME280;5712;48.858;9.206;2023-02-21T05:00:54;98582.50;;;2.41;100.00
11314;BME280;5712;48.858;9.206;2023-02-21T05:03:21;98584.22;;;2.42;100.00
11314;BME280;5712;48.858;9.206;2023-02-21T05:05:50;98577.00;;;2.50;100.00
11314;BME280;5712;48.858;9.206;2023-02-21T05:08:16;98579.53;;;2.53;100.00
11314;BME280;5712;48.858;9.206;2023-02-21T05:10:43;98580.41;;;2.52;100.00
11314;BME280;5712;48.858;9.206;2023-02-21T05:13:10;98582.03;;;2.56;100.00
11314;BME280;5712;48.858;9.206;2023-02-21T05:15:37;98576.84;;;2.55;100.00
11314;BME280;5712;48.858;9.206;2023-02-21T05:18:03;98576.94;;;2.53;100.00
11314;BME280;5712;48.858;9.206;2023-02-21T05:20:30;98575.19;;;2.52;100.00
11314;BME280;5712;48.858;9.206;2023-02-21T05:22:58;98571.91;;;2.47;100.00
11314;BME280;5712;48.858;9.206;2023-02-21T05:25:24;98566.69;;;2.47;100.00
11314;BME280;5712;48.858;9.206;2023-02-21T05:27:51;98578.13;;;2.42;100.00
11314;BME280;5712;48.858;9.206;2023-02-21T05:30:19;98570.44;;;2.37;100.00
11314;BME280;5712;48.858;9.206;2023-02-21T05:32:46;98575.69;;;2.36;100.00
11314;BME280;5712;48.858;9.206;2023-02-21T05:35:14;98566.34;;;2.29;100.00
11314;BME280;5712;48.858;9.206;2023-02-21T05:37:41;98565.41;;;2.31;100.00
11314;BME280;5712;48.858;9.206;2023-02-21T05:40:10;98570.91;;;2.22;100.00
11314;BME280;5712;48.858;9.206;2023-02-21T05:42:37;98569.19;;;2.21;100.00
11314;BME280;5712;48.858;9.206;2023-02-21T05:45:03;98582.94;;;2.26;100.00
11314;BME280;5712;48.858;9.206;2023-02-21T05:47:32;98577.91;;;2.20;100.00
11314;BME280;5712;48.858;9.206;2023-02-21T05:49:59;98580.53;;;2.20;100.00
11314;BME280;5712;48.858;9.206;2023-02-21T05:52:25;98569.38;;;2.15;100.00
11314;BME280;5712;48.858;9.206;2023-02-21T05:54:52;98573.88;;;2.10;100.00
11314;BME280;5712;48.858;9.206;2023-02-21T05:57:20;98579.13;;;2.09;100.00
11314;BME280;5712;48.858;9.206;2023-02-21T05:59:46;98579.94;;;2.11;100.00
11314;BME280;5712;48.858;9.206;2023-02-21T06:02:13;98583.31;;;2.14;100.00
11314;BME280;5712;48.858;9.206;2023-02-21T06:04:39;98565.97;;;2.13;100.00
11314;BME280;5712;48.858;9.206;2023-02-21T06:07:06;98571.94;;;2.17;100.00
11314;BME280;5712;48.858;9.206;2023-02-21T06:09:33;98568.34;;;2.21;100.00
11314;BME280;5712;48.858;9.206;2023-02-21T06:12:00;98567.47;;;2.20;100.00
11314;BME280;5712;48.858;9.206;2023-02-21T06:14:27;98569.94;;;2.25;100.00
11314;BME280;5712;48.858;9.206;2023-02-21T06:16:54;98571.88;;;2.20;100.00
11314;BME280;5712;48.858;9.206;2023-02-21T06:19:20;98581.63;;;2.12;100.00
11314;BME280;5712;48.858;9.206;2023-02-21T06:21:47;98582.19;;;2.23;100.00
11314;BME280;5712;48.858;9.206;2023-02-21T06:24:14;98583.41;;;2.11;100.00
11314;BME280;5712;48.858;9.206;2023-02-21T06:26:40;98594.28;;;1.95;100.00
11314;BME280;5712;48.858;9.206;2023-02-21T06:29:07;98591.00;;;1.88;100.00
11314;BME280;5712;48.858;9.206;2023-02-21T06:31:34;98595.09;;;1.66;100.00
11314;BME280;5712;48.858;9.206;2023-02-21T06:34:01;98589.44;;;1.51;100.00
11314;BME280;5712;48.858;9.206;2023-02-21T06:36:28;98587.81;;;1.47;100.00
11314;BME280;5712;48.858;9.206;2023-02-21T06:38:56;98593.25;;;1.38;100.00
11314;BME280;5712;48.858;9.206;2023-02-21T06:41:24;98600.94;;;1.42;100.00
11314;BME280;5712;48.858;9.206;2023-02-21T06:43:52;98601.16;;;1.35;100.00
11314;BME280;5712;48.858;9.206;2023-02-21T06:46:21;98604.69;;;1.32;100.00
11314;BME280;5712;48.858;9.206;2023-02-21T06:48:49;98594.34;;;1.29;100.00
11314;BME280;5712;48.858;9.206;2023-02-21T06:51:16;98601.41;;;1.24;100.00
11314;BME280;5712;48.858;9.206;2023-02-21T06:53:44;98598.75;;;1.27;100.00
11314;BME280;5712;48.858;9.206;2023-02-21T06:56:10;98600.38;;;1.31;100.00
11314;BME280;5712;48.858;9.206;2023-02-21T06:58:37;98595.09;;;1.33;100.00
11314;BME280;5712;48.858;9.206;2023-02-21T07:01:04;98598.44;;;1.39;100.00
11314;BME280;5712;48.858;9.206;2023-02-21T07:03:30;98605.91;;;1.51;100.00
11314;BME280;5712;48.858;9.206;2023-02-21T07:05:58;98598.00;;;1.54;100.00
11314;BME280;5712;48.858;9.206;2023-02-21T07:08:25;98598.69;;;1.62;100.00
11314;BME280;5712;48.858;9.206;2023-02-21T07:10:51;98599.34;;;1.69;100.00
11314;BME280;5712;48.858;9.206;2023-02-21T07:13:18;98601.91;;;1.72;100.00
11314;BME280;5712;48.858;9.206;2023-02-21T07:15:44;98605.94;;;1.82;100.00
11314;BME280;5712;48.858;9.206;2023-02-21T07:18:11;98594.25;;;1.96;100.00
11314;BME280;5712;48.858;9.206;2023-02-21T07:20:38;98598.97;;;2.13;100.00
11314;BME280;5712;48.858;9.206;2023-02-21T07:23:06;98595.09;;;2.27;100.00
11314;BME280;5712;48.858;9.206;2023-02-21T07:25:32;98586.88;;;2.41;100.00
11314;BME280;5712;48.858;9.206;2023-02-21T07:27:59;98591.63;;;2.56;100.00
11314;BME280;5712;48.858;9.206;2023-02-21T07:30:26;98583.59;;;2.62;100.00
11314;BME280;5712;48.858;9.206;2023-02-21T07:32:52;98589.44;;;2.70;100.00
11314;BME280;5712;48.858;9.206;2023-02-21T07:35:19;98590.06;;;2.78;100.00
11314;BME280;5712;48.858;9.206;2023-02-21T07:37:45;98585.63;;;2.80;100.00
11314;BME280;5712;48.858;9.206;2023-02-21T07:40:13;98580.09;;;2.90;100.00
11314;BME280;5712;48.858;9.206;2023-02-21T07:42:40;98585.81;;;3.01;100.00
11314;BME280;5712;48.858;9.206;2023-02-21T07:45:08;98597.59;;;3.14;100.00
11314;BME280;5712;48.858;9.206;2023-02-21T07:47:35;98583.31;;;3.24;100.00
11314;BME280;5712;48.858;9.206;2023-02-21T07:50:02;98591.75;;;3.32;100.00
11314;BME280;5712;48.858;9.206;2023-02-21T07:52:29;98588.03;;;3.39;100.00
11314;BME280;5712;48.858;9.206;2023-02-21T07:54:55;98592.94;;;3.48;100.00
11314;BME280;5712;48.858;9.206;2023-02-21T07:57:23;98587.41;;;3.57;100.00
11314;BME280;5712;48.858;9.206;2023-02-21T07:59:50;98586.28;;;3.64;100.00
11314;BME280;5712;48.858;9.206;2023-02-21T08:02:16;98581.56;;;3.75;100.00
11314;BME280;5712;48.858;9.206;2023-02-21T08:04:43;98594.28;;;3.84;100.00
11314;BME280;5712;48.858;9.206;2023-02-21T08:07:09;98586.13;;;3.93;100.00
11314;BME280;5712;48.858;9.206;2023-02-21T08:09:36;98593.53;;;4.05;100.00
11314;BME280;5712;48.858;9.206;2023-02-21T08:12:03;98587.97;;;4.14;100.00
11314;BME280;5712;48.858;9.206;2023-02-21T08:14:31;98587.50;;;4.26;100.00
11314;BME280;5712;48.858;9.206;2023-02-21T08:16:57;98585.34;;;4.37;100.00
11314;BME280;5712;48.858;9.206;2023-02-21T08:19:24;98588.53;;;4.45;100.00
11314;BME280;5712;48.858;9.206;2023-02-21T08:21:50;98590.69;;;4.57;100.00
11314;BME280;5712;48.858;9.206;2023-02-21T08:24:18;98593.13;;;4.83;100.00
11314;BME280;5712;48.858;9.206;2023-02-21T08:26:45;98596.19;;;4.94;100.00
11314;BME280;5712;48.858;9.206;2023-02-21T08:29:13;98594.69;;;5.10;100.00
11314;BME280;5712;48.858;9.206;2023-02-21T08:31:41;98592.25;;;5.27;100.00
11314;BME280;5712;48.858;9.206;2023-02-21T08:34:08;98594.34;;;5.39;100.00
11314;BME280;5712;48.858;9.206;2023-02-21T08:36:37;98581.13;;;5.62;97.30
11314;BME280;5712;48.858;9.206;2023-02-21T08:39:05;98578.13;;;5.71;95.54
11314;BME280;5712;48.858;9.206;2023-02-21T08:41:35;98588.78;;;5.88;95.37
11314;BME280;5712;48.858;9.206;2023-02-21T08:44:03;98577.81;;;5.99;96.11
11314;BME280;5712;48.858;9.206;2023-02-21T08:46:29;98580.88;;;6.08;96.17
11314;BME280;5712;48.858;9.206;2023-02-21T08:48:57;98589.41;;;6.13;95.64
11314;BME280;5712;48.858;9.206;2023-02-21T08:51:24;98572.41;;;6.22;93.52
11314;BME280;5712;48.858;9.206;2023-02-21T08:53:51;98574.75;;;6.46;93.07
11314;BME280;5712;48.858;9.206;2023-02-21T08:56:18;98574.34;;;6.55;92.38
11314;BME280;5712;48.858;9.206;2023-02-21T08:58:44;98566.31;;;6.77;89.75
11314;BME280;5712;48.858;9.206;2023-02-21T09:01:11;98566.09;;;6.81;88.53
11314;BME280;5712;48.858;9.206;2023-02-21T09:03:37;98569.13;;;6.72;88.18
11314;BME280;5712;48.858;9.206;2023-02-21T09:06:06;98565.72;;;6.70;88.41
11314;BME280;5712;48.858;9.206;2023-02-21T09:08:33;98571.09;;;7.04;90.35
11314;BME280;5712;48.858;9.206;2023-02-21T09:11:00;98574.03;;;7.15;89.19
11314;BME280;5712;48.858;9.206;2023-02-21T09:13:26;98568.03;;;7.30;87.83
11314;BME280;5712;48.858;9.206;2023-02-21T09:15:53;98561.19;;;7.44;86.67
11314;BME280;5712;48.858;9.206;2023-02-21T09:18:20;98565.06;;;7.38;86.25
11314;BME280;5712;48.858;9.206;2023-02-21T09:20:46;98561.25;;;7.60;86.57
11314;BME280;5712;48.858;9.206;2023-02-21T09:23:18;98541.28;;;7.90;84.06
11314;BME280;5712;48.858;9.206;2023-02-21T09:25:45;98545.66;;;8.06;82.73
11314;BME280;5712;48.858;9.206;2023-02-21T09:28:12;98544.63;;;8.09;82.12
11314;BME280;5712;48.858;9.206;2023-02-21T09:30:39;98538.69;;;8.05;82.09
11314;BME280;5712;48.858;9.206;2023-02-21T09:33:05;98551.28;;;8.33;83.52
11314;BME280;5712;48.858;9.206;2023-02-21T09:35:32;98534.03;;;8.43;79.84
11314;BME280;5712;48.858;9.206;2023-02-21T09:37:59;98539.13;;;8.46;81.07
11314;BME280;5712;48.858;9.206;2023-02-21T09:40:34;98533.00;;;8.61;80.28
11314;BME280;5712;48.858;9.206;2023-02-21T09:43:04;98535.25;;;8.68;79.47
11314;BME280;5712;48.858;9.206;2023-02-21T09:45:35;98537.59;;;8.88;80.81
11314;BME280;5712;48.858;9.206;2023-02-21T09:48:06;98527.38;;;8.98;79.16
11314;BME280;5712;48.858;9.206;2023-02-21T09:50:39;98534.41;;;8.99;79.15
11314;BME280;5712;48.858;9.206;2023-02-21T09:53:07;98532.78;;;8.96;78.68
11314;BME280;5712;48.858;9.206;2023-02-21T09:55:37;98527.03;;;9.04;78.11
11314;BME280;5712;48.858;9.206;2023-02-21T09:58:10;98526.47;;;9.14;77.52
11314;BME280;5712;48.858;9.206;2023-02-21T10:00:37;98515.72;;;9.17;76.41
11314;BME280;5712;48.858;9.206;2023-02-21T10:03:18;98521.91;;;9.32;75.89
11314;BME280;5712;48.858;9.206;2023-02-21T10:05:50;98508.28;;;9.39;75.67
11314;BME280;5712;48.858;9.206;2023-02-21T10:08:25;98506.03;;;9.47;74.88
11314;BME280;5712;48.858;9.206;2023-02-21T10:11:09;98506.53;;;9.54;74.01
11314;BME280;5712;48.858;9.206;2023-02-21T10:13:47;98503.16;;;9.66;73.29
11314;BME280;5712;48.858;9.206;2023-02-21T10:16:19;98505.81;;;9.80;73.44
11314;BME280;5712;48.858;9.206;2023-02-21T10:18:58;98500.63;;;9.92;72.88
11314;BME280;5712;48.858;9.206;2023-02-21T10:21:30;98487.38;;;10.08;71.42
11314;BME280;5712;48.858;9.206;2023-02-21T10:23:58;98488.72;;;10.15;70.36
11314;BME280;5712;48.858;9.206;2023-02-21T10:26:33;98503.22;;;10.36;72.53
11314;BME280;5712;48.858;9.206;2023-02-21T10:29:06;98504.22;;;10.61;71.44
11314;BME280;5712;48.858;9.206;2023-02-21T10:31:42;98502.41;;;10.76;70.95
11314;BME280;5712;48.858;9.206;2023-02-21T10:34:19;98495.56;;;10.86;69.71
11314;BME280;5712;48.858;9.206;2023-02-21T10:36:48;98475.28;;;10.86;65.72
11314;BME280;5712;48.858;9.206;2023-02-21T10:39:18;98469.50;;;10.94;64.03
11314;BME280;5712;48.858;9.206;2023-02-21T10:41:47;98468.03;;;10.76;63.23
11314;BME280;5712;48.858;9.206;2023-02-21T10:44:18;98475.09;;;10.75;64.62
11314;BME280;5712;48.858;9.206;2023-02-21T10:46:52;98482.56;;;10.83;64.37
11314;BME280;5712;48.858;9.206;2023-02-21T10:49:23;98467.59;;;10.96;63.89
11314;BME280;5712;48.858;9.206;2023-02-21T10:52:04;98487.13;;;11.20;67.01
11314;BME280;5712;48.858;9.206;2023-02-21T10:54:31;98470.84;;;11.26;65.29
11314;BME280;5712;48.858;9.206;2023-02-21T10:56:59;98455.84;;;11.39;63.54
11314;BME280;5712;48.858;9.206;2023-02-21T10:59:29;98460.28;;;11.38;63.68
11314;BME280;5712;48.858;9.206;2023-02-21T11:01:57;98454.81;;;11.41;63.33
11314;BME280;5712;48.858;9.206;2023-02-21T11:04:27;98463.91;;;11.50;63.66
11314;BME280;5712;48.858;9.206;2023-02-21T11:06:58;98450.88;;;11.47;63.35
11314;BME280;5712;48.858;9.206;2023-02-21T11:09:39;98450.31;;;11.81;63.57
11314;BME280;5712;48.858;9.206;2023-02-21T11:12:20;98445.13;;;11.92;62.73
11314;BME280;5712;48.858;9.206;2023-02-21T11:15:04;98440.66;;;12.05;62.14
11314;BME280;5712;48.858;9.206;2023-02-21T11:17:31;98432.59;;;12.19;61.78
11314;BME280;5712;48.858;9.206;2023-02-21T11:20:03;98428.34;;;12.16;60.94
11314;BME280;5712;48.858;9.206;2023-02-21T11:22:37;98423.47;;;12.23;61.04
11314;BME280;5712;48.858;9.206;2023-02-21T11:25:16;98422.78;;;12.32;61.25
11314;BME280;5712;48.858;9.206;2023-02-21T11:27:57;98415.53;;;12.23;60.60
11314;BME280;5712;48.858;9.206;2023-02-21T11:30:25;98417.28;;;12.35;60.27
11314;BME280;5712;48.858;9.206;2023-02-21T11:32:54;98403.06;;;12.36;59.55
11314;BME280;5712;48.858;9.206;2023-02-21T11:35:23;98396.09;;;12.35;59.71
11314;BME280;5712;48.858;9.206;2023-02-21T11:37:53;98389.59;;;12.39;59.20
11314;BME280;5712;48.858;9.206;2023-02-21T11:40:29;98375.00;;;12.57;58.52
11314;BME280;5712;48.858;9.206;2023-02-21T11:43:18;98370.94;;;12.64;58.29
11314;BME280;5712;48.858;9.206;2023-02-21T11:45:53;98361.75;;;12.80;58.14
11314;BME280;5712;48.858;9.206;2023-02-21T11:48:24;98342.59;;;12.88;56.40
11314;BME280;5712;48.858;9.206;2023-02-21T11:50:56;98352.13;;;12.90;56.83
11314;BME280;5712;48.858;9.206;2023-02-21T11:53:28;98352.56;;;12.97;57.04
11314;BME280;5712;48.858;9.206;2023-02-21T11:56:01;98348.47;;;13.04;57.01
11314;BME280;5712;48.858;9.206;2023-02-21T11:58:40;98334.50;;;13.02;56.47
11314;BME280;5712;48.858;9.206;2023-02-21T12:01:12;98344.19;;;13.14;56.82
11314;BME280;5712;48.858;9.206;2023-02-21T12:04:01;98331.63;;;13.16;55.97
11314;BME280;5712;48.858;9.206;2023-02-21T12:06:34;98316.69;;;13.26;54.65
11314;BME280;5712;48.858;9.206;2023-02-21T12:09:06;98322.94;;;13.25;56.00
11314;BME280;5712;48.858;9.206;2023-02-21T12:11:48;98322.97;;;13.36;56.66
11314;BME280;5712;48.858;9.206;2023-02-21T12:14:33;98309.13;;;13.54;55.96
11314;BME280;5712;48.858;9.206;2023-02-21T12:17:11;98305.72;;;13.52;55.57
11314;BME280;5712;48.858;9.206;2023-02-21T12:20:07;98301.88;;;13.56;55.27
11314;BME280;5712;48.858;9.206;2023-02-21T12:22:48;98300.69;;;13.60;56.38
11314;BME280;5712;48.858;9.206;2023-02-21T12:25:20;98291.13;;;13.58;55.75
11314;BME280;5712;48.858;9.206;2023-02-21T12:27:53;98291.13;;;13.69;55.80
11314;BME280;5712;48.858;9.206;2023-02-21T12:30:34;98285.78;;;13.80;55.52
11314;BME280;5712;48.858;9.206;2023-02-21T12:33:18;98270.81;;;13.79;55.74
11314;BME280;5712;48.858;9.206;2023-02-21T12:36:00;98265.50;;;13.90;55.37
11314;BME280;5712;48.858;9.206;2023-02-21T12:38:42;98257.41;;;13.91;53.75
11314;BME280;5712;48.858;9.206;2023-02-21T12:41:22;98263.56;;;13.92;55.01
11314;BME280;5712;48.858;9.206;2023-02-21T12:43:56;98249.44;;;13.91;54.70
11314;BME280;5712;48.858;9.206;2023-02-21T12:46:30;98254.88;;;13.90;54.95
11314;BME280;5712;48.858;9.206;2023-02-21T12:49:02;98239.66;;;13.92;54.64
11314;BME280;5712;48.858;9.206;2023-02-21T12:51:32;98224.66;;;14.02;53.57
11314;BME280;5712;48.858;9.206;2023-02-21T12:54:02;98228.00;;;14.15;53.51
11314;BME280;5712;48.858;9.206;2023-02-21T12:56:33;98223.91;;;14.22;53.30
11314;BME280;5712;48.858;9.206;2023-02-21T12:59:03;98229.91;;;14.35;54.45
11314;BME280;5712;48.858;9.206;2023-02-21T13:01:37;98217.72;;;14.32;54.20
11314;BME280;5712;48.858;9.206;2023-02-21T13:04:16;98211.66;;;14.30;53.98
11314;BME280;5712;48.858;9.206;2023-02-21T13:06:48;98199.31;;;14.40;52.86
11314;BME280;5712;48.858;9.206;2023-02-21T13:09:24;98202.03;;;14.50;53.79
11314;BME280;5712;48.858;9.206;2023-02-21T13:11:56;98198.22;;;14.43;53.63
11314;BME280;5712;48.858;9.206;2023-02-21T13:14:27;98166.81;;;14.37;51.58
11314;BME280;5712;48.858;9.206;2023-02-21T13:16:58;98174.09;;;14.35;52.30
11314;BME280;5712;48.858;9.206;2023-02-21T13:19:39;98181.84;;;14.47;53.01
11314;BME280;5712;48.858;9.206;2023-02-21T13:25:40;98160.81;;;14.65;52.09
11314;BME280;5712;48.858;9.206;2023-02-21T13:28:13;98147.28;;;14.68;51.57
11314;BME280;5712;48.858;9.206;2023-02-21T13:30:45;98161.28;;;14.70;51.95
11314;BME280;5712;48.858;9.206;2023-02-21T13:33:24;98137.41;;;14.59;51.22
11314;BME280;5712;48.858;9.206;2023-02-21T13:35:51;98139.13;;;14.60;51.69
11314;BME280;5712;48.858;9.206;2023-02-21T13:38:19;98144.16;;;14.63;51.98
11314;BME280;5712;48.858;9.206;2023-02-21T13:40:50;98137.16;;;14.62;51.90
11314;BME280;5712;48.858;9.206;2023-02-21T13:43:22;98140.53;;;14.64;52.32
11314;BME280;5712;48.858;9.206;2023-02-21T13:45:49;98130.09;;;14.72;51.94
11314;BME280;5712;48.858;9.206;2023-02-21T13:48:28;98117.41;;;14.85;51.48
11314;BME280;5712;48.858;9.206;2023-02-21T13:50:56;98114.59;;;14.86;51.06
11314;BME280;5712;48.858;9.206;2023-02-21T13:53:24;98112.75;;;14.77;51.19